Terminal Aerodrome Forecast
Issued by NWS Upton, NY

Home | Current Version | Previous Version | Text Only | Print | Product List | Glossary On
Versions: 1 2 3 4 5 6 7 8 9 10 11 12 13 14 15 16 17 18 19 20 21 22 23 24 25 26 27 28 29 30
000
FTUS41 KOKX 231700
TAFEWR
TAF
KEWR 231732Z 2318/2424 07007KT P6SM SCT030 BKN040 OVC100
      TEMPO 2318/2320 BKN030
     FM232100 12008KT P6SM SCT040 BKN100
     FM240300 VRB05KT P6SM FEW060
     FM241300 03007KT P6SM SCT050
     FM241900 08008KT P6SM SCT040=

USA.gov is the U.S. government's official web portal to all federal, state and local government web resources and services.